createdAt,value
2023-05-25T00:00:16.904Z,9.10
2023-05-25T00:05:18.031Z,9.87
2023-05-25T00:15:29.535Z,8.54
2023-05-25T00:20:29.965Z,9.29
2023-05-25T00:30:56.728Z,8.91
2023-05-25T00:36:00.374Z,8.92
2023-05-25T00:41:14.130Z,8.86
2023-05-25T00:46:16.241Z,8.99
2023-05-25T00:51:38.021Z,8.88
2023-05-25T00:56:41.211Z,8.15
2023-05-25T01:01:58.024Z,8.50
2023-05-25T01:06:50.740Z,8.59
2023-05-25T01:11:44.811Z,7.78
2023-05-25T01:16:38.150Z,8.78
2023-05-25T01:22:21.036Z,8.76
2023-05-25T01:38:14.715Z,8.55
2023-05-25T01:43:11.728Z,8.37
2023-05-25T01:48:58.548Z,8.21
2023-05-25T01:54:01.083Z,7.82
2023-05-25T01:59:03.167Z,8.56
2023-05-25T02:04:02.506Z,7.32
2023-05-25T02:09:00.775Z,7.40
2023-05-25T02:13:57.073Z,8.52
2023-05-25T02:18:51.900Z,7.85
2023-05-25T02:23:50.022Z,8.37
2023-05-25T02:28:46.523Z,8.20
2023-05-25T02:39:04.330Z,7.81
2023-05-25T02:49:20.792Z,8.15
2023-05-25T02:54:20.694Z,7.51
2023-05-25T02:59:13.031Z,7.60
2023-05-25T03:04:05.487Z,7.92
2023-05-25T03:09:04.716Z,8.04
2023-05-25T03:13:57.590Z,6.65
2023-05-25T03:18:53.985Z,6.29
2023-05-25T03:29:33.933Z,7.08
2023-05-25T03:34:32.926Z,7.99
2023-05-25T03:39:47.266Z,8.08
2023-05-25T03:49:59.772Z,8.27
2023-05-25T04:00:06.419Z,8.40
2023-05-25T04:05:04.693Z,7.90
2023-05-25T04:10:10.582Z,8.17
2023-05-25T04:15:19.184Z,7.61
2023-05-25T04:20:45.225Z,9.14
2023-05-25T04:30:58.476Z,9.14
2023-05-25T04:46:52.606Z,9.53
2023-05-25T04:51:52.007Z,10.68
2023-05-25T04:56:45.521Z,11.53
2023-05-25T05:01:42.497Z,14.48
2023-05-25T05:06:39.844Z,17.57
2023-05-25T05:11:33.863Z,19.53
2023-05-25T05:16:25.984Z,21.15
2023-05-25T05:21:19.628Z,22.61
2023-05-25T05:26:15.433Z,24.63
2023-05-25T05:31:08.656Z,25.66
2023-05-25T05:36:02.761Z,26.62
2023-05-25T05:40:55.401Z,26.84
2023-05-25T05:45:50.560Z,27.49
2023-05-25T05:50:42.804Z,27.65
2023-05-25T05:55:38.989Z,27.90
2023-05-25T06:00:32.342Z,28.46
2023-05-25T06:05:25.905Z,28.93
2023-05-25T06:10:19.942Z,29.94
2023-05-25T06:15:12.346Z,30.20
2023-05-25T06:20:06.829Z,30.84
2023-05-25T06:24:59.275Z,30.75
2023-05-25T06:29:53.898Z,30.47
2023-05-25T06:34:46.043Z,31.57
2023-05-25T06:39:40.740Z,31.91
2023-05-25T06:44:33.345Z,30.12
2023-05-25T06:49:33.409Z,31.95
2023-05-25T06:54:28.369Z,33.06
2023-05-25T06:59:21.031Z,34.78
2023-05-25T07:04:13.307Z,34.90
2023-05-25T07:09:06.635Z,35.39
2023-05-25T07:13:58.655Z,34.40
2023-05-25T07:18:51.767Z,34.89
2023-05-25T07:23:45.341Z,34.06
2023-05-25T07:28:39.966Z,34.33
2023-05-25T07:33:32.312Z,32.86
2023-05-25T07:38:24.344Z,32.90
2023-05-25T07:43:16.672Z,33.37
2023-05-25T07:48:09.838Z,31.99
2023-05-25T07:53:02.224Z,32.99
2023-05-25T07:57:54.963Z,32.20
2023-05-25T08:02:47.933Z,30.94
2023-05-25T08:07:42.114Z,31.72
2023-05-25T08:12:47.674Z,33.11
2023-05-25T08:17:44.003Z,34.29
2023-05-25T08:22:36.554Z,34.70
2023-05-25T08:27:29.078Z,32.85
2023-05-25T08:32:22.268Z,31.70
2023-05-25T08:37:15.429Z,29.81
2023-05-25T08:42:08.812Z,28.01
2023-05-25T08:47:06.987Z,27.59
2023-05-25T08:52:00.078Z,30.09
2023-05-25T08:57:30.609Z,33.37
2023-05-25T09:02:55.459Z,30.76
2023-05-25T09:07:48.254Z,29.08
2023-05-25T09:12:44.679Z,27.95
2023-05-25T09:17:38.310Z,27.68
2023-05-25T09:22:30.422Z,26.34
2023-05-25T09:27:23.636Z,27.45
2023-05-25T09:32:22.106Z,27.42
2023-05-25T09:37:18.212Z,27.39
2023-05-25T09:42:12.347Z,28.85
2023-05-25T09:47:06.614Z,26.60
2023-05-25T09:52:02.419Z,28.40
2023-05-25T09:56:54.809Z,25.53
2023-05-25T10:01:52.498Z,25.43
2023-05-25T10:06:50.254Z,24.09
2023-05-25T10:11:44.889Z,24.77
2023-05-25T10:16:41.849Z,23.90
2023-05-25T10:21:38.932Z,24.05
2023-05-25T10:26:37.295Z,23.23
2023-05-25T10:31:31.956Z,23.38
2023-05-25T10:36:25.835Z,23.07
2023-05-25T10:41:24.800Z,22.91
2023-05-25T10:46:17.599Z,22.57
2023-05-25T10:51:12.629Z,22.76
2023-05-25T10:56:07.571Z,22.17
2023-05-25T11:01:03.346Z,22.06
2023-05-25T11:05:57.076Z,22.02
2023-05-25T11:10:51.202Z,21.58
2023-05-25T11:20:49.208Z,22.35
2023-05-25T11:25:44.165Z,22.18
2023-05-25T11:30:43.439Z,21.35
2023-05-25T11:35:42.128Z,21.41
2023-05-25T11:40:40.153Z,21.29
2023-05-25T11:45:38.075Z,21.80
2023-05-25T11:50:32.360Z,21.43
2023-05-25T11:55:26.026Z,21.51
2023-05-25T12:00:26.424Z,21.20
2023-05-25T12:05:21.485Z,20.44
2023-05-25T12:10:18.389Z,21.30
2023-05-25T12:15:15.122Z,21.29
2023-05-25T12:20:10.699Z,20.75
2023-05-25T12:25:06.310Z,20.19
2023-05-25T12:30:00.271Z,19.28
2023-05-25T12:35:02.681Z,18.98
2023-05-25T12:39:55.573Z,19.10
2023-05-25T12:44:48.070Z,19.26
2023-05-25T12:49:41.899Z,18.85
2023-05-25T12:54:47.594Z,18.95
2023-05-25T12:59:41.781Z,18.85
2023-05-25T13:04:35.070Z,18.67
2023-05-25T13:09:27.673Z,18.73
2023-05-25T13:14:21.736Z,18.59
2023-05-25T13:19:15.406Z,18.50
2023-05-25T13:24:08.721Z,18.62
2023-05-25T13:29:00.824Z,18.49
2023-05-25T13:33:52.978Z,18.51
2023-05-25T13:38:45.307Z,18.77
2023-05-25T13:43:38.045Z,18.92
2023-05-25T13:48:30.336Z,18.84
2023-05-25T13:53:24.483Z,18.99
2023-05-25T13:58:16.529Z,18.68
2023-05-25T14:03:10.900Z,18.80
2023-05-25T14:08:05.860Z,19.49
2023-05-25T14:13:00.722Z,19.76
2023-05-25T14:17:54.549Z,19.05
2023-05-25T14:22:48.667Z,19.41
2023-05-25T14:27:40.667Z,19.32
2023-05-25T14:32:33.551Z,19.70
2023-05-25T14:37:25.998Z,19.52
2023-05-25T14:42:18.075Z,19.40
2023-05-25T14:47:10.338Z,19.66
2023-05-25T14:57:18.355Z,19.50
2023-05-25T15:02:10.343Z,19.40
2023-05-25T15:07:02.409Z,19.41
2023-05-25T15:11:54.443Z,19.60
2023-05-25T15:16:46.732Z,19.42
2023-05-25T15:21:38.909Z,19.43
2023-05-25T15:26:32.953Z,19.24
2023-05-25T15:31:25.149Z,19.03
2023-05-25T15:36:17.263Z,19.17
2023-05-25T15:41:09.347Z,19.53
2023-05-25T15:46:02.798Z,19.13
2023-05-25T15:50:55.134Z,19.48
2023-05-25T15:55:48.022Z,19.09
2023-05-25T16:00:40.127Z,19.32
2023-05-25T16:05:32.371Z,19.27
2023-05-25T16:10:24.386Z,19.27
2023-05-25T16:15:18.915Z,18.88
2023-05-25T16:20:12.637Z,18.68
2023-05-25T16:25:05.136Z,18.79
2023-05-25T16:29:57.271Z,18.95
2023-05-25T16:34:50.902Z,18.63
2023-05-25T16:39:42.852Z,18.85
2023-05-25T16:44:35.753Z,18.41
2023-05-25T16:49:27.745Z,18.48
2023-05-25T16:54:19.810Z,18.37
2023-05-25T16:59:12.511Z,18.22
2023-05-25T17:04:04.980Z,18.21
2023-05-25T17:09:00.982Z,18.09
2023-05-25T17:13:58.501Z,18.15
2023-05-25T17:18:50.579Z,17.65
2023-05-25T17:23:43.705Z,18.05
2023-05-25T17:28:36.801Z,17.83
2023-05-25T17:33:28.931Z,17.67
2023-05-25T17:38:20.942Z,17.60
2023-05-25T17:43:13.453Z,17.81
2023-05-25T17:48:08.359Z,17.79
2023-05-25T17:53:01.371Z,17.56
2023-05-25T17:57:54.766Z,17.19
2023-05-25T18:02:48.015Z,17.22
2023-05-25T18:07:40.509Z,17.42
2023-05-25T18:12:49.661Z,16.85
2023-05-25T18:17:47.382Z,17.05
2023-05-25T19:15:18.014Z,15.51
2023-05-25T19:26:51.800Z,14.73
2023-05-25T19:33:10.646Z,15.00
2023-05-25T20:03:06.141Z,14.31
2023-05-25T21:55:09.148Z,12.61
2023-05-25T22:42:18.986Z,11.11
2023-05-25T22:47:17.405Z,12.00
2023-05-25T22:58:10.814Z,11.59
2023-05-25T23:08:36.307Z,11.78
2023-05-25T23:13:44.289Z,10.06
2023-05-25T23:18:50.757Z,11.20
2023-05-25T23:23:51.206Z,11.30
2023-05-25T23:28:43.535Z,11.46
2023-05-25T23:38:51.517Z,10.68
2023-05-25T23:54:58.149Z,10.35
